Time;durP1;ratioP1;P1;durP2;ratioP2;P2;SDS_P1;SDS_P2;PMS_P1;PMS_P2;Temp;Humidity;BMP_temperature;BMP_pressure;BME280_temperature;BME280_humidity;BME280_pressure;Samples;Min_cycle;Max_cycle;Signal;HPM_P1;HPM_P2
2024/03/20 00:01:28;;;;;;;12.57;5.25;;;;;;;9.08;65.04;100677.66;10388353;28;20069;-65
2024/03/20 00:06:32;;;;;;;12.40;5.05;;;;;;;9.00;65.33;100683.81;10381894;28;20069;-65
2024/03/20 00:11:33;;;;;;;15.43;5.63;;;;;;;9.06;65.00;100671.63;10387658;28;20046;-65
2024/03/20 00:16:37;;;;;;;13.43;5.55;;;;;;;9.07;65.02;100681.34;10375623;28;20038;-63
2024/03/20 00:21:38;;;;;;;13.13;4.82;;;;;;;9.06;64.97;100676.97;10390140;28;20261;-63
2024/03/20 00:26:38;;;;;;;11.10;5.47;;;;;;;8.96;65.20;100679.75;10386501;28;20045;-65
2024/03/20 00:31:39;;;;;;;10.68;4.57;;;;;;;8.81;65.62;100686.72;10386325;28;20045;-65
2024/03/20 00:36:39;;;;;;;10.10;4.57;;;;;;;8.69;66.01;100678.09;10393306;28;20042;-65
2024/03/20 00:41:40;;;;;;;9.65;4.53;;;;;;;8.69;65.64;100681.59;10377062;28;21316;-65
2024/03/20 00:46:40;;;;;;;12.18;4.80;;;;;;;8.70;65.79;100682.44;10379876;28;20091;-65
2024/03/20 00:51:41;;;;;;;12.35;5.03;;;;;;;8.72;65.47;100680.44;10380923;28;20050;-65
2024/03/20 00:56:42;;;;;;;15.70;6.15;;;;;;;8.73;65.81;100676.78;10373971;28;20045;-65
2024/03/20 01:01:42;;;;;;;17.15;6.05;;;;;;;8.74;65.57;100675.75;10374723;28;20096;-65
2024/03/20 01:06:44;;;;;;;13.35;5.18;;;;;;;8.62;66.19;100677.00;10376915;28;20678;-66
2024/03/20 01:11:44;;;;;;;13.90;4.35;;;;;;;8.56;66.51;100681.16;10378621;28;20050;-67
2024/03/20 01:16:48;;;;;;;10.10;4.60;;;;;;;8.59;66.16;100680.84;10375616;28;20072;-65
2024/03/20 01:21:49;;;;;;;11.15;4.20;;;;;;;8.57;66.07;100677.47;10378855;28;20041;-63
2024/03/20 01:26:49;;;;;;;7.65;4.10;;;;;;;8.60;65.98;100669.13;10376539;28;20054;-66
2024/03/20 01:31:50;;;;;;;8.48;4.43;;;;;;;8.57;66.02;100672.13;10382331;28;20548;-66
2024/03/20 01:36:52;;;;;;;11.60;4.45;;;;;;;8.56;65.96;100664.25;10380232;28;20049;-66
2024/03/20 01:41:52;;;;;;;12.35;4.70;;;;;;;8.52;65.95;100669.88;10387205;28;20038;-65
2024/03/20 01:46:53;;;;;;;10.55;5.05;;;;;;;8.49;65.86;100658.63;10383844;28;20127;-67
2024/03/20 01:51:53;;;;;;;7.40;3.92;;;;;;;8.47;66.06;100657.94;10401448;28;20053;-64
2024/03/20 01:56:54;;;;;;;9.32;4.70;;;;;;;8.45;66.21;100658.13;10413608;28;20416;-65
2024/03/20 02:01:54;;;;;;;13.73;6.47;;;;;;;8.41;66.22;100659.44;10402931;28;20052;-65
2024/03/20 02:06:55;;;;;;;10.85;6.32;;;;;;;8.40;66.53;100654.19;10403026;28;20100;-65
2024/03/20 02:11:55;;;;;;;14.10;6.15;;;;;;;8.45;66.09;100654.59;10403987;28;20127;-65
2024/03/20 02:16:56;;;;;;;10.65;5.53;;;;;;;8.47;66.33;100661.50;10413350;28;20038;-65
2024/03/20 02:21:56;;;;;;;13.07;6.45;;;;;;;8.45;66.51;100655.44;10409343;28;20097;-66
2024/03/20 02:26:57;;;;;;;14.30;6.80;;;;;;;8.24;67.02;100658.41;10424618;28;20041;-65
2024/03/20 02:31:57;;;;;;;13.57;7.43;;;;;;;8.13;67.51;100656.78;10416001;28;20050;-65
2024/03/20 02:36:58;;;;;;;14.07;7.53;;;;;;;8.08;67.46;100659.09;10409626;28;20099;-64
2024/03/20 02:41:58;;;;;;;13.18;7.47;;;;;;;8.14;67.46;100657.63;10400639;28;20057;-65
2024/03/20 02:47:00;;;;;;;18.55;9.02;;;;;;;8.08;67.56;100655.56;10387912;28;20738;-65
2024/03/20 02:52:00;;;;;;;16.27;7.43;;;;;;;8.06;68.20;100661.06;10392070;28;20042;-65
2024/03/20 02:57:01;;;;;;;22.02;9.70;;;;;;;8.04;67.78;100667.59;10379784;28;20045;-66
2024/03/20 03:02:02;;;;;;;18.77;8.32;;;;;;;8.12;67.73;100662.31;10381891;28;20076;-62
2024/03/20 03:07:02;;;;;;;17.52;8.20;;;;;;;8.15;67.59;100664.66;10378072;28;20489;-63
2024/03/20 03:12:04;;;;;;;15.32;7.65;;;;;;;8.18;67.38;100663.53;10362545;28;20362;-62
2024/03/20 03:17:05;;;;;;;17.75;6.95;;;;;;;8.25;67.65;100660.06;10382417;28;20050;-63
2024/03/20 03:22:05;;;;;;;14.27;6.97;;;;;;;8.30;67.47;100656.94;10363595;28;20042;-62
2024/03/20 03:27:06;;;;;;;14.70;7.03;;;;;;;8.31;67.43;100662.16;10375748;28;20042;-62
2024/03/20 03:32:06;;;;;;;15.07;6.65;;;;;;;8.30;67.70;100657.78;10382820;28;20037;-64
2024/03/20 03:37:07;;;;;;;15.55;7.63;;;;;;;8.32;67.72;100665.66;10378886;28;20567;-62
2024/03/20 03:42:07;;;;;;;17.35;6.63;;;;;;;8.29;67.61;100661.47;10382842;28;20042;-63
2024/03/20 03:47:08;;;;;;;15.10;7.38;;;;;;;8.25;67.38;100672.63;10378137;28;20082;-62
2024/03/20 03:52:08;;;;;;;14.52;6.70;;;;;;;8.18;67.97;100668.91;10379275;28;20473;-63
2024/03/20 03:57:09;;;;;;;16.38;6.28;;;;;;;8.21;67.31;100669.41;10380243;28;20054;-62
2024/03/20 04:02:09;;;;;;;17.23;7.22;;;;;;;8.21;67.62;100672.09;10377724;28;20500;-62
2024/03/20 04:07:10;;;;;;;16.98;7.28;;;;;;;8.12;67.73;100673.84;10377386;28;20133;-65
2024/03/20 04:12:11;;;;;;;15.88;6.53;;;;;;;8.15;67.79;100664.66;10404263;28;20048;-65
2024/03/20 04:17:11;;;;;;;13.43;6.07;;;;;;;8.09;67.76;100671.47;10409573;28;20978;-65
2024/03/20 04:22:12;;;;;;;13.07;6.43;;;;;;;8.04;67.38;100678.28;10409029;28;20100;-65
2024/03/20 04:27:12;;;;;;;18.40;7.00;;;;;;;7.98;67.49;100670.84;10391851;28;20041;-64
2024/03/20 04:32:13;;;;;;;13.10;5.97;;;;;;;7.94;67.59;100664.97;10397246;28;20048;-65
2024/03/20 04:37:13;;;;;;;11.25;5.75;;;;;;;7.90;67.42;100668.94;10382208;28;20045;-65
2024/03/20 04:42:14;;;;;;;13.00;5.88;;;;;;;7.86;67.73;100665.72;10418494;28;20090;-65
2024/03/20 04:47:14;;;;;;;12.50;6.25;;;;;;;7.82;67.45;100668.81;10414763;28;20048;-65
2024/03/20 04:52:15;;;;;;;15.73;6.35;;;;;;;7.70;67.81;100674.41;10412516;28;20534;-65
2024/03/20 04:57:15;;;;;;;13.05;6.68;;;;;;;7.73;67.34;100687.47;10407026;28;20042;-65
2024/03/20 05:02:16;;;;;;;11.90;5.10;;;;;;;7.70;68.24;100690.47;10386497;28;20097;-66
2024/03/20 05:07:16;;;;;;;16.90;5.70;;;;;;;7.66;67.38;100686.41;10396571;28;20042;-66
2024/03/20 05:12:17;;;;;;;12.95;5.78;;;;;;;7.67;67.70;100685.41;10419439;28;20049;-67
2024/03/20 05:17:17;;;;;;;13.50;5.47;;;;;;;7.64;68.11;100695.56;10397152;28;20042;-63
2024/03/20 05:22:18;;;;;;;19.52;6.88;;;;;;;7.64;67.75;100687.53;10386403;28;20038;-62
2024/03/20 05:27:18;;;;;;;15.27;7.32;;;;;;;7.66;68.25;100689.06;10399046;28;20109;-63
2024/03/20 05:32:19;;;;;;;16.05;6.57;;;;;;;7.77;68.34;100689.88;10420694;28;20041;-64
2024/03/20 05:37:19;;;;;;;19.60;7.35;;;;;;;7.83;67.97;100690.09;10438261;28;20041;-64
2024/03/20 05:42:21;;;;;;;13.25;6.97;;;;;;;7.89;67.38;100689.50;10436527;28;20037;-63
2024/03/20 05:47:22;;;;;;;14.40;6.55;;;;;;;7.90;68.16;100701.06;10439153;28;20050;-64
2024/03/20 05:52:22;;;;;;;17.77;6.78;;;;;;;7.94;67.94;100697.09;10432896;28;20221;-64
2024/03/20 05:57:23;;;;;;;15.75;7.13;;;;;;;7.98;67.87;100700.28;10438587;28;20068;-64
2024/03/20 06:02:23;;;;;;;20.17;10.05;;;;;;;8.05;67.97;100699.53;10422645;23;20041;-89
2024/03/20 06:07:24;;;;;;;17.33;8.35;;;;;;;8.13;67.97;100696.94;10425705;23;20103;-67
2024/03/20 06:12:25;;;;;;;15.80;8.38;;;;;;;8.22;67.61;100702.41;10338838;28;20046;-67
2024/03/20 06:17:25;;;;;;;17.35;7.68;;;;;;;8.29;67.58;100707.00;10331960;28;20051;-68
2024/03/20 06:22:26;;;;;;;12.82;7.20;;;;;;;8.37;67.83;100703.53;10333590;28;20061;-67
2024/03/20 06:27:26;;;;;;;17.75;8.07;;;;;;;8.45;67.83;100706.34;10354717;28;20374;-61
2024/03/20 06:32:30;;;;;;;22.25;9.15;;;;;;;8.48;68.02;100700.66;10352383;28;20140;-63
2024/03/20 06:37:30;;;;;;;18.10;8.52;;;;;;;8.53;68.27;100701.06;10353836;28;20061;-63
2024/03/20 06:42:31;;;;;;;16.50;9.00;;;;;;;8.57;68.50;100706.97;10352926;28;20535;-63
2024/03/20 06:47:32;;;;;;;21.30;8.90;;;;;;;8.72;68.08;100709.91;10345748;28;20054;-62
2024/03/20 06:52:38;;;;;;;18.90;8.73;;;;;;;8.93;67.87;100717.63;10345430;28;20046;-63
2024/03/20 06:57:39;;;;;;;18.45;8.88;;;;;;;9.08;68.14;100723.25;10325067;28;20058;-63
2024/03/20 07:02:39;;;;;;;16.45;9.18;;;;;;;9.33;67.80;100717.03;10337960;28;20046;-64
2024/03/20 07:07:41;;;;;;;20.88;8.52;;;;;;;9.58;67.47;100722.56;10327259;28;20413;-64
2024/03/20 07:12:41;;;;;;;20.83;8.63;;;;;;;9.80;67.32;100726.50;10343604;28;20052;-63
2024/03/20 07:17:42;;;;;;;20.63;10.75;;;;;;;10.00;67.05;100729.75;10347919;28;20050;-63
2024/03/20 07:22:43;;;;;;;17.35;8.25;;;;;;;10.15;67.46;100723.75;10346173;28;20038;-63
2024/03/20 07:27:44;;;;;;;17.48;7.75;;;;;;;10.36;67.33;100724.16;10337805;28;20052;-64
2024/03/20 07:32:44;;;;;;;19.50;9.00;;;;;;;10.53;66.82;100722.34;10345962;28;20039;-63
2024/03/20 07:37:46;;;;;;;17.25;7.53;;;;;;;10.75;66.71;100720.84;10342079;28;20052;-64
2024/03/20 07:42:46;;;;;;;16.75;7.65;;;;;;;10.96;66.91;100716.81;10325578;28;20038;-63
2024/03/20 07:47:47;;;;;;;14.95;6.95;;;;;;;11.17;66.47;100717.13;10326008;28;20581;-64
2024/03/20 07:52:48;;;;;;;14.88;7.15;;;;;;;11.38;66.04;100723.81;10329769;28;20034;-64
2024/03/20 07:57:49;;;;;;;17.70;8.60;;;;;;;11.57;66.29;100728.81;10325906;28;20037;-65
2024/03/20 08:02:49;;;;;;;16.30;6.88;;;;;;;11.80;66.21;100736.13;10327076;28;20046;-65
2024/03/20 08:07:50;;;;;;;19.33;8.80;;;;;;;11.96;65.83;100738.78;10325972;28;20173;-65
2024/03/20 08:12:50;;;;;;;17.10;8.13;;;;;;;12.10;65.86;100746.13;10329096;28;20121;-65
2024/03/20 08:17:51;;;;;;;14.63;7.53;;;;;;;12.22;65.45;100745.72;10324667;28;20089;-65
2024/03/20 08:22:51;;;;;;;15.10;8.20;;;;;;;12.38;65.11;100740.25;10323891;28;20042;-64
2024/03/20 08:27:52;;;;;;;15.07;8.32;;;;;;;12.61;64.93;100734.84;10308023;28;20057;-65
2024/03/20 08:32:53;;;;;;;20.77;8.05;;;;;;;12.84;64.44;100742.09;10327123;28;20046;-64
2024/03/20 08:37:55;;;;;;;13.75;7.13;;;;;;;13.04;64.43;100732.47;10327326;28;20078;-65
2024/03/20 08:42:55;;;;;;;13.55;7.57;;;;;;;13.23;63.79;100732.97;10320688;28;20045;-65
2024/03/20 08:47:56;;;;;;;15.32;7.60;;;;;;;13.46;63.58;100725.66;10325373;28;21516;-64
2024/03/20 08:52:57;;;;;;;14.45;7.50;;;;;;;13.77;63.30;100723.81;10318071;28;20381;-64
2024/03/20 08:57:57;;;;;;;17.02;8.80;;;;;;;14.05;62.86;100727.50;10337077;28;20053;-65
2024/03/20 09:02:58;;;;;;;15.32;8.38;;;;;;;14.29;62.47;100717.34;10321588;28;20957;-64
2024/03/20 09:07:59;;;;;;;16.05;7.72;;;;;;;14.58;61.96;100721.03;10315228;28;20053;-64
2024/03/20 09:12:59;;;;;;;15.23;7.28;;;;;;;14.75;61.42;100716.19;10325850;28;20047;-65
2024/03/20 09:18:00;;;;;;;16.70;8.63;;;;;;;15.00;60.72;100719.31;10323414;28;20076;-65
2024/03/20 09:23:04;;;;;;;14.23;8.40;;;;;;;15.14;60.41;100712.97;10326311;28;20038;-65
2024/03/20 09:28:04;;;;;;;16.67;7.75;;;;;;;15.43;59.98;100716.50;10324379;28;20050;-65
2024/03/20 09:33:05;;;;;;;15.73;8.05;;;;;;;15.73;59.27;100705.44;10315337;28;20046;-65
2024/03/20 09:38:06;;;;;;;15.85;9.50;;;;;;;15.95;58.78;100703.44;10319431;28;20045;-65
2024/03/20 09:43:08;;;;;;;11.90;8.15;;;;;;;16.14;58.42;100699.97;10317708;28;20045;-64
2024/03/20 09:48:10;;;;;;;17.42;8.20;;;;;;;16.40;57.50;100698.38;10339391;28;20046;-65
2024/03/20 09:53:11;;;;;;;12.90;7.60;;;;;;;16.65;56.99;100693.19;10326678;28;20452;-65
2024/03/20 09:58:13;;;;;;;15.52;8.00;;;;;;;16.65;57.23;100690.47;10324734;28;20100;-65
2024/03/20 10:03:15;;;;;;;17.08;8.15;;;;;;;17.06;56.16;100675.84;10327733;28;20045;-64
2024/03/20 10:08:15;;;;;;;15.73;7.80;;;;;;;17.57;55.25;100674.28;10326025;28;20062;-65
2024/03/20 10:13:17;;;;;;;13.25;7.43;;;;;;;17.98;54.46;100675.84;10319100;28;20054;-65
2024/03/20 10:18:18;;;;;;;14.52;7.90;;;;;;;18.78;53.14;100676.16;10331649;28;20058;-64
2024/03/20 10:23:19;;;;;;;17.20;7.18;;;;;;;21.69;47.12;100664.34;10332957;28;20035;-65
2024/03/20 10:28:20;;;;;;;15.93;7.22;;;;;;;25.32;39.89;100656.59;10318982;28;20174;-65
2024/03/20 10:33:22;;;;;;;11.05;7.68;;;;;;;28.32;34.73;100648.69;10323646;28;20050;-65
2024/03/20 10:38:23;;;;;;;10.70;7.57;;;;;;;28.85;34.48;100658.00;10328371;28;20060;-65
2024/03/20 10:43:25;;;;;;;10.63;7.60;;;;;;;31.07;30.85;100653.06;10328714;28;20044;-66
2024/03/20 10:48:26;;;;;;;11.05;7.35;;;;;;;32.22;28.85;100654.84;10335995;28;20046;-65
2024/03/20 10:53:27;;;;;;;13.10;7.20;;;;;;;31.41;29.52;100661.81;10332258;28;20088;-66
2024/03/20 10:58:28;;;;;;;14.27;7.18;;;;;;;29.05;32.38;100659.72;10326034;28;20039;-66
2024/03/20 11:03:48;;;;;;;9.68;6.75;;;;;;;26.83;35.63;100657.53;10330664;28;20042;-66
2024/03/20 11:09:00;;;;;;;13.73;8.02;;;;;;;25.77;36.06;100652.38;10332407;28;20046;-65
2024/03/20 11:14:04;;;;;;;9.65;7.05;;;;;;;26.67;34.38;100651.19;10326182;28;20031;-65
2024/03/20 11:19:06;;;;;;;10.07;6.75;;;;;;;27.19;32.97;100654.72;10325545;28;20092;-65
2024/03/20 11:24:07;;;;;;;8.90;6.70;;;;;;;29.50;29.46;100647.63;10320657;28;20042;-66
2024/03/20 11:29:10;;;;;;;10.35;7.00;;;;;;;31.00;27.87;100640.41;10324526;28;20069;-71
2024/03/20 11:34:10;;;;;;;10.75;6.55;;;;;;;32.39;26.04;100637.47;10326482;28;20046;-66
2024/03/20 11:39:11;;;;;;;10.45;7.00;;;;;;;31.90;26.40;100628.03;10321191;28;20055;-66
2024/03/20 11:44:12;;;;;;;14.45;7.43;;;;;;;31.55;27.17;100633.22;10331798;28;20042;-66
2024/03/20 11:49:13;;;;;;;7.95;6.53;;;;;;;30.96;27.36;100631.03;10332053;28;20105;-66
2024/03/20 11:54:14;;;;;;;8.98;6.38;;;;;;;30.84;27.74;100633.44;10325207;28;20084;-66
2024/03/20 11:59:14;;;;;;;7.25;4.82;;;;;;;32.03;26.22;100621.63;10325966;28;20050;-66
2024/03/20 12:04:15;;;;;;;8.00;5.20;;;;;;;32.19;25.44;100622.91;10322782;28;20133;-66
2024/03/20 12:09:16;;;;;;;6.72;4.65;;;;;;;30.45;27.81;100618.00;10321303;28;20580;-66
2024/03/20 12:14:17;;;;;;;4.70;2.22;;;;;;;30.53;27.67;100617.34;10321094;28;20046;-66
2024/03/20 12:19:17;;;;;;;3.60;1.25;;;;;;;33.53;23.63;100614.66;10320048;28;20064;-62
2024/03/20 12:24:18;;;;;;;9.48;4.93;;;;;;;34.18;23.06;100603.72;10333192;28;20557;-65
2024/03/20 12:29:18;;;;;;;6.53;3.13;;;;;;;34.93;21.96;100604.28;10359568;28;20045;-65
2024/03/20 12:34:19;;;;;;;3.92;2.30;;;;;;;35.77;20.94;100597.28;10351071;28;20054;-65
2024/03/20 12:39:19;;;;;;;6.55;2.47;;;;;;;36.82;20.11;100585.91;10364498;28;20070;-65
2024/03/20 12:44:20;;;;;;;3.67;2.33;;;;;;;36.22;19.54;100597.41;10335229;28;20127;-64
2024/03/20 12:49:20;;;;;;;4.65;3.13;;;;;;;34.61;20.81;100585.28;10346210;28;20057;-65
2024/03/20 12:54:25;;;;;;;3.58;2.15;;;;;;;34.99;20.11;100576.94;10342571;28;20077;-65
2024/03/20 12:59:27;;;;;;;2.70;1.80;;;;;;;36.45;18.74;100583.81;10341901;28;20042;-61
2024/03/20 13:04:28;;;;;;;3.90;2.33;;;;;;;36.62;18.74;100582.81;10350450;28;20042;-66
2024/03/20 13:09:30;;;;;;;4.20;2.70;;;;;;;37.12;18.08;100589.34;10345099;28;20168;-65
2024/03/20 13:14:32;;;;;;;3.80;2.53;;;;;;;37.80;17.78;100585.03;10333460;28;20045;-62
2024/03/20 13:19:34;;;;;;;3.88;2.03;;;;;;;39.03;17.01;100573.22;10330464;28;20049;-62
2024/03/20 13:24:34;;;;;;;4.15;2.30;;;;;;;38.68;17.19;100571.91;10337768;28;20959;-64
2024/03/20 13:29:38;;;;;;;2.45;1.80;;;;;;;39.80;16.13;100566.13;10323458;28;20047;-66
2024/03/20 13:34:39;;;;;;;2.90;1.73;;;;;;;39.06;16.68;100559.25;10327916;28;20039;-66
2024/03/20 13:39:49;;;;;;;4.72;3.13;;;;;;;38.30;17.05;100555.63;10323566;28;20397;-67
2024/03/20 13:44:52;;;;;;;2.47;1.55;;;;;;;37.65;17.50;100545.34;10326451;28;20408;-65
2024/03/20 13:49:53;;;;;;;4.22;1.75;;;;;;;37.31;17.67;100546.69;10323256;28;20473;-65
2024/03/20 13:54:54;;;;;;;6.80;2.85;;;;;;;37.26;17.53;100547.72;10328885;28;20050;-65
2024/03/20 13:59:54;;;;;;;2.35;1.45;;;;;;;36.88;18.28;100537.69;10320034;28;20605;-65
2024/03/20 14:04:55;;;;;;;5.45;1.60;;;;;;;37.22;18.08;100531.97;10322546;28;20042;-65
2024/03/20 14:09:56;;;;;;;2.50;1.63;;;;;;;37.31;17.90;100533.47;10323776;28;20049;-64
2024/03/20 14:14:56;;;;;;;3.20;1.40;;;;;;;36.20;18.58;100520.50;10329588;28;20458;-65
2024/03/20 14:19:57;;;;;;;2.47;1.42;;;;;;;35.12;19.30;100525.59;10325293;28;20101;-64
2024/03/20 14:24:58;;;;;;;1.92;1.25;;;;;;;34.68;19.51;100513.00;10324238;28;20555;-64
2024/03/20 14:29:58;;;;;;;3.95;1.20;;;;;;;34.49;19.53;100505.81;10316941;28;20054;-64
2024/03/20 14:34:59;;;;;;;3.75;1.70;;;;;;;34.33;20.14;100501.94;10331521;28;20109;-64
2024/03/20 14:40:00;;;;;;;3.67;1.75;;;;;;;34.08;20.45;100495.22;10335462;28;20058;-65
2024/03/20 14:45:00;;;;;;;4.25;1.45;;;;;;;33.17;21.12;100504.22;10327659;28;20585;-65
2024/03/20 14:50:01;;;;;;;4.13;1.60;;;;;;;32.32;21.76;100495.16;10323454;28;20050;-67
2024/03/20 14:55:05;;;;;;;4.78;1.15;;;;;;;31.47;22.31;100486.69;10321333;28;20045;-67
2024/03/20 15:00:09;;;;;;;5.03;1.58;;;;;;;31.21;23.17;100476.13;10322377;28;20489;-68
2024/03/20 15:05:10;;;;;;;3.08;1.42;;;;;;;30.97;23.04;100482.75;10329233;28;20041;-66
2024/03/20 15:10:11;;;;;;;2.90;1.30;;;;;;;30.92;23.03;100476.47;10322613;28;20045;-65
2024/03/20 15:15:12;;;;;;;4.28;1.58;;;;;;;30.93;23.21;100472.56;10326582;28;20058;-65
2024/03/20 15:20:13;;;;;;;5.55;1.35;;;;;;;30.92;23.24;100457.84;10322161;28;20466;-65
2024/03/20 15:25:17;;;;;;;4.18;1.92;;;;;;;30.25;23.83;100458.28;10319327;28;20078;-66
2024/03/20 15:30:17;;;;;;;2.63;1.20;;;;;;;29.58;24.67;100458.56;10330987;28;20057;-66
2024/03/20 15:35:18;;;;;;;1.98;1.17;;;;;;;29.18;25.16;100458.88;10323246;28;20076;-65
2024/03/20 15:40:18;;;;;;;6.90;1.50;;;;;;;29.08;25.45;100454.25;10324777;28;20398;-66
2024/03/20 15:45:19;;;;;;;5.10;1.23;;;;;;;28.93;25.94;100456.41;10331117;28;20137;-66
2024/03/20 15:50:19;;;;;;;2.63;1.08;;;;;;;29.07;25.63;100458.16;10323502;28;20513;-66
2024/03/20 15:55:20;;;;;;;8.63;4.32;;;;;;;28.62;26.33;100457.63;10323325;28;20129;-66
2024/03/20 16:00:21;;;;;;;5.72;1.63;;;;;;;28.04;26.40;100455.72;10318414;28;20101;-65
2024/03/20 16:05:23;;;;;;;4.47;2.03;;;;;;;27.38;27.38;100464.47;10324227;28;20490;-66
2024/03/20 16:10:23;;;;;;;2.63;2.03;;;;;;;26.77;27.87;100462.81;10327310;28;20104;-65
2024/03/20 16:15:25;;;;;;;5.43;1.80;;;;;;;26.09;28.68;100467.59;10318932;28;20464;-67
2024/03/20 16:20:26;;;;;;;5.13;1.73;;;;;;;25.52;29.60;100466.72;10322476;28;20042;-64
2024/03/20 16:25:26;;;;;;;9.77;5.32;;;;;;;25.02;30.32;100464.63;10320429;28;20069;-65
2024/03/20 16:30:27;;;;;;;5.18;2.33;;;;;;;24.45;30.94;100463.53;10320233;28;20042;-65
2024/03/20 16:35:27;;;;;;;9.85;3.70;;;;;;;24.01;31.69;100467.31;10319596;28;20096;-65
2024/03/20 16:40:30;;;;;;;8.00;3.25;;;;;;;23.60;32.67;100475.19;10316178;28;20066;-64
2024/03/20 16:45:31;;;;;;;6.00;2.88;;;;;;;23.23;33.16;100475.88;10316591;28;20057;-65
2024/03/20 16:50:32;;;;;;;7.43;2.60;;;;;;;22.85;33.90;100476.75;10319208;28;20516;-64
2024/03/20 16:55:33;;;;;;;9.13;2.80;;;;;;;;;;10330763;28;20037;-65
2024/03/20 17:00:34;;;;;;;6.93;4.30;;;;;;;22.12;35.21;100488.56;10328717;28;20037;-67
2024/03/20 17:05:36;;;;;;;9.40;4.10;;;;;;;21.79;35.83;100492.13;10337626;28;20050;-64
2024/03/20 17:10:37;;;;;;;6.65;3.28;;;;;;;21.50;36.64;100494.88;10333394;28;20050;-66
2024/03/20 17:15:38;;;;;;;8.00;3.53;;;;;;;21.19;37.42;100491.53;10333812;28;20094;-67
2024/03/20 17:20:38;;;;;;;7.18;3.38;;;;;;;20.88;37.67;100490.06;10331123;28;20461;-66
2024/03/20 17:25:39;;;;;;;8.98;4.05;;;;;;;20.56;38.43;100495.09;10323374;28;20796;-66
2024/03/20 17:30:39;;;;;;;7.30;3.58;;;;;;;20.28;38.97;100498.50;10350992;28;20074;-68
2024/03/20 17:35:40;;;;;;;12.60;5.65;;;;;;;20.01;40.00;100507.16;10337059;28;20121;-69
2024/03/20 17:40:40;;;;;;;12.15;5.68;;;;;;;19.74;40.24;100509.47;10354639;28;20038;-69
2024/03/20 17:45:41;;;;;;;8.43;4.00;;;;;;;19.47;41.04;100514.41;10454042;23;20050;-90
2024/03/20 17:50:42;;;;;;;10.25;5.10;;;;;;;19.24;42.19;100523.34;10435704;23;21033;-68
2024/03/20 17:55:43;;;;;;;11.30;6.20;;;;;;;18.95;43.19;100523.03;10375803;28;20088;-66
2024/03/20 18:00:43;;;;;;;13.95;6.30;;;;;;;18.67;43.77;100521.63;10423399;23;20107;-90
2024/03/20 18:05:44;;;;;;;12.07;3.88;;;;;;;18.25;44.88;100524.13;10371615;28;20050;-91
2024/03/20 18:10:45;;;;;;;10.60;4.60;;;;;;;18.04;45.18;100523.44;10364858;28;20037;-91
2024/03/20 18:15:48;;;;;;;8.52;4.32;;;;;;;17.88;45.56;100521.28;10363751;28;20559;-89
2024/03/20 18:20:49;;;;;;;11.15;4.55;;;;;;;17.80;45.89;100524.22;10404217;28;20046;-89
2024/03/20 18:25:50;;;;;;;8.43;4.60;;;;;;;17.63;46.78;100530.19;10399334;28;20038;-89
2024/03/20 18:30:50;;;;;;;9.65;4.03;;;;;;;17.41;47.11;100528.84;10416313;28;20381;-88
2024/03/20 18:35:51;;;;;;;9.02;4.40;;;;;;;17.30;47.42;100521.34;10414329;28;20102;-88
2024/03/20 18:40:52;;;;;;;12.98;4.75;;;;;;;17.15;48.04;100532.50;10403906;28;20041;-88
2024/03/20 18:45:56;;;;;;;32.05;6.05;;;;;;;16.99;48.89;100531.09;10397434;23;20045;-58
2024/03/20 18:50:57;;;;;;;23.88;6.32;;;;;;;16.82;49.56;100536.16;10382864;28;20046;-59
2024/03/20 18:55:59;;;;;;;27.63;8.70;;;;;;;16.64;49.97;100521.31;10380449;28;20140;-59
2024/03/20 19:00:59;;;;;;;31.27;9.15;;;;;;;16.49;50.81;100533.47;10379266;28;20413;-60
2024/03/20 19:06:00;;;;;;;39.30;10.30;;;;;;;16.33;51.18;100532.00;10379536;28;20120;-59
2024/03/20 19:11:00;;;;;;;50.47;16.08;;;;;;;16.16;51.64;100537.88;10375598;28;20079;-60
2024/03/20 19:16:04;;;;;;;35.22;11.77;;;;;;;16.02;52.21;100550.56;10380647;28;20439;-59
2024/03/20 19:21:05;;;;;;;18.65;7.93;;;;;;;15.86;52.38;100556.41;10379671;28;20038;-57
2024/03/20 19:26:08;;;;;;;18.67;8.80;;;;;;;15.67;52.93;100555.28;10379691;28;20669;-57
2024/03/20 19:31:09;;;;;;;18.60;8.15;;;;;;;15.54;53.06;100550.66;10389617;28;20064;-57
2024/03/20 19:36:10;;;;;;;16.80;7.75;;;;;;;15.40;53.15;100551.63;10384783;28;20111;-58
2024/03/20 19:41:12;;;;;;;15.98;6.90;;;;;;;15.23;54.02;100554.69;10382483;28;20041;-58
2024/03/20 19:46:12;;;;;;;14.73;7.85;;;;;;;15.08;54.41;100552.13;10376542;28;20153;-56
2024/03/20 19:51:13;;;;;;;16.30;8.88;;;;;;;14.95;54.94;100553.91;10381835;28;20071;-59
2024/03/20 19:56:14;;;;;;;19.63;9.40;;;;;;;14.79;55.27;100547.81;10375804;28;20563;-57
2024/03/20 20:01:14;;;;;;;13.30;7.53;;;;;;;14.64;55.69;100544.38;10383338;28;20107;-57
2024/03/20 20:06:15;;;;;;;18.02;6.60;;;;;;;14.46;56.08;100551.09;10376156;28;20054;-57
2024/03/20 20:11:15;;;;;;;6.85;4.47;;;;;;;14.29;56.45;100549.69;10379712;28;20060;-58
2024/03/20 20:16:16;;;;;;;8.27;4.28;;;;;;;14.21;56.54;100547.13;10377802;28;20045;-58
2024/03/20 20:21:17;;;;;;;7.90;2.78;;;;;;;14.14;56.68;100549.78;10377797;28;20141;-58
2024/03/20 20:26:21;;;;;;;5.60;2.83;;;;;;;14.06;56.64;100558.03;10379721;28;20053;-57
2024/03/20 20:31:21;;;;;;;5.90;3.55;;;;;;;13.95;57.10;100562.09;10380288;28;20038;-58
2024/03/20 20:36:21;;;;;;;8.15;3.15;;;;;;;13.80;57.45;100570.28;10383646;28;20037;-57
2024/03/20 20:41:22;;;;;;;5.50;3.00;;;;;;;13.69;57.74;100565.34;10377380;28;20065;-59
2024/03/20 20:46:24;;;;;;;10.73;3.90;;;;;;;13.60;57.75;100578.13;10383018;28;20065;-55
2024/03/20 20:51:24;;;;;;;11.15;4.60;;;;;;;13.47;58.10;100575.28;10361128;28;20045;-56
2024/03/20 20:56:25;;;;;;;11.70;5.18;;;;;;;13.34;58.04;100581.34;10375241;28;20050;-57
2024/03/20 21:01:25;;;;;;;10.65;4.05;;;;;;;13.13;58.85;100579.41;10379173;28;20050;-57
2024/03/20 21:22:24;;;;;;;5.00;2.33;;;;;;;12.62;59.80;100585.50;10377170;28;20060;-56
2024/03/20 21:27:27;;;;;;;5.68;2.22;;;;;;;12.60;59.43;100595.66;10381607;28;20053;-55
2024/03/20 21:32:28;;;;;;;7.03;2.28;;;;;;;12.63;59.29;100587.16;10379866;28;20048;-57
2024/03/20 21:37:28;;;;;;;5.82;2.08;;;;;;;12.62;59.09;100588.22;10378405;28;20400;-56
2024/03/20 21:42:29;;;;;;;4.60;2.10;;;;;;;12.62;58.95;100582.81;10381419;28;20044;-58
2024/03/20 21:47:29;;;;;;;7.20;2.58;;;;;;;12.63;58.50;100586.34;10401393;28;20072;-59
2024/03/20 21:52:30;;;;;;;4.55;1.95;;;;;;;12.54;58.86;100585.59;10414845;28;20053;-59
2024/03/20 21:57:31;;;;;;;5.38;1.80;;;;;;;12.46;59.15;100591.91;10412618;28;20504;-59
2024/03/20 22:02:32;;;;;;;5.82;2.45;;;;;;;12.39;59.41;100592.81;10414532;28;20071;-59
2024/03/20 22:07:33;;;;;;;7.55;2.30;;;;;;;12.31;59.46;100588.31;10407627;28;20120;-60
2024/03/20 22:12:34;;;;;;;6.00;3.05;;;;;;;12.24;59.38;100590.06;10406730;28;20555;-59
2024/03/20 22:17:35;;;;;;;8.02;2.10;;;;;;;12.16;59.60;100584.72;10407942;28;20045;-59
2024/03/20 22:22:35;;;;;;;4.82;2.80;;;;;;;12.08;59.71;100597.28;10405279;28;20760;-57
2024/03/20 22:27:38;;;;;;;3.58;2.10;;;;;;;11.99;60.19;100587.56;10403067;28;20045;-57
2024/03/20 22:32:39;;;;;;;4.93;1.85;;;;;;;11.93;60.07;100596.38;10412504;28;20049;-57
2024/03/20 22:37:40;;;;;;;5.88;2.17;;;;;;;11.81;60.46;100590.50;10404771;28;20417;-57
2024/03/20 22:42:40;;;;;;;5.60;1.90;;;;;;;11.70;60.39;100593.59;10409357;28;20081;-57
2024/03/20 22:47:41;;;;;;;6.55;2.13;;;;;;;11.61;60.95;100606.28;10394931;28;20385;-57
2024/03/20 22:52:41;;;;;;;4.15;1.50;;;;;;;11.47;61.14;100613.25;10408614;28;20087;-58
2024/03/20 22:57:54;;;;;;;4.30;2.25;;;;;;;11.43;61.55;100603.00;10405850;28;20052;-58
2024/03/20 23:02:54;;;;;;;4.45;1.83;;;;;;;11.52;60.61;100601.94;10406283;28;20048;-58
2024/03/20 23:07:55;;;;;;;2.75;2.00;;;;;;;11.54;61.18;100596.41;10404401;28;20036;-57
2024/03/20 23:12:56;;;;;;;5.53;1.67;;;;;;;11.54;60.51;100591.84;10405214;28;20063;-60